sensor_id;sensor_type;location;lat;lon;timestamp;P1;durP1;ratioP1;P2;durP2;ratioP2
10005;SDS011;5042;42.626;23.382;2023-07-16T00:01:04;10.35;;;7.30;;
10005;SDS011;5042;42.626;23.382;2023-07-16T00:03:31;9.48;;;7.47;;
10005;SDS011;5042;42.626;23.382;2023-07-16T00:05:57;8.98;;;7.35;;
10005;SDS011;5042;42.626;23.382;2023-07-16T00:08:24;8.52;;;7.45;;
10005;SDS011;5042;42.626;23.382;2023-07-16T00:10:52;13.07;;;7.97;;
10005;SDS011;5042;42.626;23.382;2023-07-16T00:13:19;8.10;;;7.30;;
10005;SDS011;5042;42.626;23.382;2023-07-16T00:15:45;9.68;;;7.65;;
10005;SDS011;5042;42.626;23.382;2023-07-16T00:18:12;8.32;;;7.25;;
10005;SDS011;5042;42.626;23.382;2023-07-16T00:20:39;7.78;;;6.82;;
10005;SDS011;5042;42.626;23.382;2023-07-16T00:23:06;9.77;;;6.80;;
10005;SDS011;5042;42.626;23.382;2023-07-16T00:25:32;8.05;;;7.03;;
10005;SDS011;5042;42.626;23.382;2023-07-16T00:28:01;7.75;;;6.40;;
10005;SDS011;5042;42.626;23.382;2023-07-16T00:30:28;6.88;;;6.25;;
10005;SDS011;5042;42.626;23.382;2023-07-16T00:32:55;7.65;;;6.85;;
10005;SDS011;5042;42.626;23.382;2023-07-16T00:35:22;7.65;;;6.53;;
10005;SDS011;5042;42.626;23.382;2023-07-16T00:37:48;7.70;;;6.72;;
10005;SDS011;5042;42.626;23.382;2023-07-16T00:40:15;8.15;;;6.20;;
10005;SDS011;5042;42.626;23.382;2023-07-16T00:42:42;6.85;;;6.15;;
10005;SDS011;5042;42.626;23.382;2023-07-16T00:45:11;7.30;;;6.43;;
10005;SDS011;5042;42.626;23.382;2023-07-16T00:47:39;7.22;;;6.53;;
10005;SDS011;5042;42.626;23.382;2023-07-16T00:50:07;8.30;;;6.25;;
10005;SDS011;5042;42.626;23.382;2023-07-16T00:52:36;11.93;;;6.43;;
10005;SDS011;5042;42.626;23.382;2023-07-16T00:55:04;6.85;;;6.25;;
10005;SDS011;5042;42.626;23.382;2023-07-16T00:57:32;6.60;;;5.90;;
10005;SDS011;5042;42.626;23.382;2023-07-16T01:00:00;8.77;;;6.47;;
10005;SDS011;5042;42.626;23.382;2023-07-16T01:02:28;7.75;;;5.50;;
10005;SDS011;5042;42.626;23.382;2023-07-16T01:04:54;8.02;;;5.40;;
10005;SDS011;5042;42.626;23.382;2023-07-16T01:07:21;7.55;;;6.28;;
10005;SDS011;5042;42.626;23.382;2023-07-16T01:09:51;8.98;;;5.93;;
10005;SDS011;5042;42.626;23.382;2023-07-16T01:12:20;6.28;;;5.53;;
10005;SDS011;5042;42.626;23.382;2023-07-16T01:14:48;7.05;;;6.20;;
10005;SDS011;5042;42.626;23.382;2023-07-16T01:17:17;6.63;;;5.53;;
10005;SDS011;5042;42.626;23.382;2023-07-16T01:19:45;6.53;;;5.82;;
10005;SDS011;5042;42.626;23.382;2023-07-16T01:25:20;5.25;;;4.75;;
10005;SDS011;5042;42.626;23.382;2023-07-16T01:28:05;7.35;;;5.32;;
10005;SDS011;5042;42.626;23.382;2023-07-16T01:30:49;9.23;;;5.63;;
10005;SDS011;5042;42.626;23.382;2023-07-16T01:33:18;5.78;;;5.05;;
10005;SDS011;5042;42.626;23.382;2023-07-16T01:35:47;5.75;;;5.03;;
10005;SDS011;5042;42.626;23.382;2023-07-16T01:38:16;6.55;;;4.85;;
10005;SDS011;5042;42.626;23.382;2023-07-16T01:40:46;9.07;;;5.28;;
10005;SDS011;5042;42.626;23.382;2023-07-16T01:43:12;5.95;;;5.05;;
10005;SDS011;5042;42.626;23.382;2023-07-16T01:45:39;5.22;;;4.65;;
10005;SDS011;5042;42.626;23.382;2023-07-16T01:48:11;5.38;;;4.88;;
10005;SDS011;5042;42.626;23.382;2023-07-16T01:50:47;6.30;;;5.30;;
10005;SDS011;5042;42.626;23.382;2023-07-16T01:53:14;7.63;;;5.20;;
10005;SDS011;5042;42.626;23.382;2023-07-16T01:55:58;6.35;;;4.80;;
10005;SDS011;5042;42.626;23.382;2023-07-16T01:58:27;5.90;;;4.88;;
10005;SDS011;5042;42.626;23.382;2023-07-16T02:00:54;5.20;;;4.70;;
10005;SDS011;5042;42.626;23.382;2023-07-16T02:03:23;5.93;;;4.93;;
10005;SDS011;5042;42.626;23.382;2023-07-16T02:05:50;5.03;;;4.53;;
10005;SDS011;5042;42.626;23.382;2023-07-16T02:08:17;5.43;;;4.68;;
10005;SDS011;5042;42.626;23.382;2023-07-16T02:10:44;5.28;;;4.68;;
10005;SDS011;5042;42.626;23.382;2023-07-16T02:13:13;5.85;;;4.93;;
10005;SDS011;5042;42.626;23.382;2023-07-16T02:15:39;7.72;;;5.00;;
10005;SDS011;5042;42.626;23.382;2023-07-16T02:18:06;5.85;;;5.20;;
10005;SDS011;5042;42.626;23.382;2023-07-16T02:20:34;5.97;;;4.80;;
10005;SDS011;5042;42.626;23.382;2023-07-16T02:23:01;5.47;;;4.82;;
10005;SDS011;5042;42.626;23.382;2023-07-16T02:25:27;5.05;;;4.55;;
10005;SDS011;5042;42.626;23.382;2023-07-16T02:27:54;4.97;;;4.47;;
10005;SDS011;5042;42.626;23.382;2023-07-16T02:30:21;5.85;;;4.65;;
10005;SDS011;5042;42.626;23.382;2023-07-16T02:32:47;6.63;;;4.95;;
10005;SDS011;5042;42.626;23.382;2023-07-16T02:35:14;4.82;;;4.32;;
10005;SDS011;5042;42.626;23.382;2023-07-16T02:37:43;4.55;;;4.18;;
10005;SDS011;5042;42.626;23.382;2023-07-16T02:40:09;5.68;;;4.53;;
10005;SDS011;5042;42.626;23.382;2023-07-16T02:42:36;5.45;;;4.68;;
10005;SDS011;5042;42.626;23.382;2023-07-16T02:45:03;4.80;;;4.30;;
10005;SDS011;5042;42.626;23.382;2023-07-16T02:47:31;5.07;;;4.40;;
10005;SDS011;5042;42.626;23.382;2023-07-16T02:49:57;5.68;;;4.82;;
10005;SDS011;5042;42.626;23.382;2023-07-16T02:52:24;4.60;;;4.20;;
10005;SDS011;5042;42.626;23.382;2023-07-16T02:54:52;5.93;;;4.70;;
10005;SDS011;5042;42.626;23.382;2023-07-16T02:57:20;6.28;;;3.90;;
10005;SDS011;5042;42.626;23.382;2023-07-16T02:59:47;5.95;;;4.80;;
10005;SDS011;5042;42.626;23.382;2023-07-16T03:02:14;5.55;;;4.40;;
10005;SDS011;5042;42.626;23.382;2023-07-16T03:04:41;5.05;;;4.55;;
10005;SDS011;5042;42.626;23.382;2023-07-16T03:07:07;6.93;;;4.75;;
10005;SDS011;5042;42.626;23.382;2023-07-16T03:09:34;5.13;;;4.60;;
10005;SDS011;5042;42.626;23.382;2023-07-16T03:12:02;4.80;;;4.40;;
10005;SDS011;5042;42.626;23.382;2023-07-16T03:14:29;5.65;;;4.20;;
10005;SDS011;5042;42.626;23.382;2023-07-16T03:16:56;5.78;;;4.25;;
10005;SDS011;5042;42.626;23.382;2023-07-16T03:19:23;5.03;;;4.53;;
10005;SDS011;5042;42.626;23.382;2023-07-16T03:21:49;5.43;;;4.65;;
10005;SDS011;5042;42.626;23.382;2023-07-16T03:24:16;7.18;;;4.72;;
10005;SDS011;5042;42.626;23.382;2023-07-16T03:26:43;5.45;;;4.32;;
10005;SDS011;5042;42.626;23.382;2023-07-16T03:29:11;7.03;;;4.70;;
10005;SDS011;5042;42.626;23.382;2023-07-16T03:31:37;5.20;;;4.60;;
10005;SDS011;5042;42.626;23.382;2023-07-16T03:34:22;4.97;;;4.40;;
10005;SDS011;5042;42.626;23.382;2023-07-16T03:36:49;4.90;;;4.40;;
10005;SDS011;5042;42.626;23.382;2023-07-16T03:39:16;5.13;;;4.03;;
10005;SDS011;5042;42.626;23.382;2023-07-16T03:41:42;5.20;;;4.70;;
10005;SDS011;5042;42.626;23.382;2023-07-16T03:44:11;5.25;;;4.50;;
10005;SDS011;5042;42.626;23.382;2023-07-16T03:46:37;4.28;;;3.70;;
10005;SDS011;5042;42.626;23.382;2023-07-16T03:49:06;4.68;;;4.00;;
10005;SDS011;5042;42.626;23.382;2023-07-16T03:51:33;5.45;;;3.88;;
10005;SDS011;5042;42.626;23.382;2023-07-16T03:53:59;5.43;;;4.18;;
10005;SDS011;5042;42.626;23.382;2023-07-16T03:56:26;4.40;;;3.78;;
10005;SDS011;5042;42.626;23.382;2023-07-16T03:58:53;5.63;;;4.05;;
10005;SDS011;5042;42.626;23.382;2023-07-16T04:01:21;4.38;;;4.00;;
10005;SDS011;5042;42.626;23.382;2023-07-16T04:03:48;4.28;;;3.88;;
10005;SDS011;5042;42.626;23.382;2023-07-16T04:06:14;4.15;;;3.75;;
10005;SDS011;5042;42.626;23.382;2023-07-16T04:08:41;4.05;;;3.67;;
10005;SDS011;5042;42.626;23.382;2023-07-16T04:11:08;3.95;;;3.65;;
10005;SDS011;5042;42.626;23.382;2023-07-16T04:13:34;5.95;;;4.10;;
10005;SDS011;5042;42.626;23.382;2023-07-16T04:16:01;4.65;;;3.80;;
10005;SDS011;5042;42.626;23.382;2023-07-16T04:18:29;6.50;;;3.78;;
10005;SDS011;5042;42.626;23.382;2023-07-16T04:20:56;5.25;;;3.90;;
10005;SDS011;5042;42.626;23.382;2023-07-16T04:23:22;4.30;;;3.90;;
10005;SDS011;5042;42.626;23.382;2023-07-16T04:25:51;4.30;;;3.90;;
10005;SDS011;5042;42.626;23.382;2023-07-16T04:28:18;4.47;;;3.72;;
10005;SDS011;5042;42.626;23.382;2023-07-16T04:30:44;3.83;;;3.53;;
10005;SDS011;5042;42.626;23.382;2023-07-16T04:33:11;5.15;;;4.65;;
10005;SDS011;5042;42.626;23.382;2023-07-16T04:35:39;3.72;;;3.30;;
10005;SDS011;5042;42.626;23.382;2023-07-16T04:38:06;4.75;;;2.92;;
10005;SDS011;5042;42.626;23.382;2023-07-16T04:40:33;4.10;;;3.08;;
10005;SDS011;5042;42.626;23.382;2023-07-16T04:43:00;4.78;;;2.63;;
10005;SDS011;5042;42.626;23.382;2023-07-16T04:45:27;2.90;;;2.70;;
10005;SDS011;5042;42.626;23.382;2023-07-16T04:47:54;2.97;;;2.78;;
10005;SDS011;5042;42.626;23.382;2023-07-16T04:50:21;5.95;;;4.32;;
10005;SDS011;5042;42.626;23.382;2023-07-16T04:52:49;5.05;;;3.63;;
10005;SDS011;5042;42.626;23.382;2023-07-16T04:55:15;5.60;;;3.03;;
10005;SDS011;5042;42.626;23.382;2023-07-16T04:57:42;3.35;;;2.83;;
10005;SDS011;5042;42.626;23.382;2023-07-16T05:00:09;3.50;;;3.20;;
10005;SDS011;5042;42.626;23.382;2023-07-16T05:02:36;3.53;;;3.22;;
10005;SDS011;5042;42.626;23.382;2023-07-16T05:05:03;2.78;;;2.58;;
10005;SDS011;5042;42.626;23.382;2023-07-16T05:07:31;3.40;;;3.08;;
10005;SDS011;5042;42.626;23.382;2023-07-16T05:09:59;3.35;;;3.08;;
10005;SDS011;5042;42.626;23.382;2023-07-16T05:12:25;3.83;;;3.10;;
10005;SDS011;5042;42.626;23.382;2023-07-16T05:14:52;2.92;;;2.72;;
10005;SDS011;5042;42.626;23.382;2023-07-16T05:17:19;3.42;;;2.88;;
10005;SDS011;5042;42.626;23.382;2023-07-16T05:19:45;3.83;;;3.13;;
10005;SDS011;5042;42.626;23.382;2023-07-16T05:22:12;4.32;;;3.55;;
10005;SDS011;5042;42.626;23.382;2023-07-16T05:24:39;4.15;;;3.28;;
10005;SDS011;5042;42.626;23.382;2023-07-16T05:27:07;3.85;;;3.55;;
10005;SDS011;5042;42.626;23.382;2023-07-16T05:29:33;4.13;;;3.38;;
10005;SDS011;5042;42.626;23.382;2023-07-16T05:32:00;4.70;;;4.03;;
10005;SDS011;5042;42.626;23.382;2023-07-16T05:34:27;4.25;;;3.95;;
10005;SDS011;5042;42.626;23.382;2023-07-16T05:36:54;3.95;;;3.60;;
10005;SDS011;5042;42.626;23.382;2023-07-16T05:39:21;5.47;;;4.75;;
10005;SDS011;5042;42.626;23.382;2023-07-16T05:41:48;6.95;;;4.25;;
10005;SDS011;5042;42.626;23.382;2023-07-16T05:44:16;4.50;;;3.50;;
10005;SDS011;5042;42.626;23.382;2023-07-16T05:46:42;3.53;;;3.20;;
10005;SDS011;5042;42.626;23.382;2023-07-16T05:49:09;3.88;;;3.58;;
10005;SDS011;5042;42.626;23.382;2023-07-16T05:51:36;9.27;;;4.07;;
10005;SDS011;5042;42.626;23.382;2023-07-16T05:54:03;4.70;;;4.00;;
10005;SDS011;5042;42.626;23.382;2023-07-16T05:56:29;4.38;;;3.97;;
10005;SDS011;5042;42.626;23.382;2023-07-16T05:58:56;4.88;;;3.85;;
10005;SDS011;5042;42.626;23.382;2023-07-16T06:01:24;6.95;;;3.50;;
10005;SDS011;5042;42.626;23.382;2023-07-16T06:03:51;5.47;;;4.10;;
10005;SDS011;5042;42.626;23.382;2023-07-16T06:06:18;5.65;;;3.50;;
10005;SDS011;5042;42.626;23.382;2023-07-16T06:08:45;5.28;;;3.78;;
10005;SDS011;5042;42.626;23.382;2023-07-16T06:11:12;4.35;;;3.38;;
10005;SDS011;5042;42.626;23.382;2023-07-16T06:13:39;3.88;;;3.58;;
10005;SDS011;5042;42.626;23.382;2023-07-16T06:16:06;5.03;;;4.45;;
10005;SDS011;5042;42.626;23.382;2023-07-16T06:18:34;4.78;;;4.05;;
10005;SDS011;5042;42.626;23.382;2023-07-16T06:21:00;4.93;;;4.00;;
10005;SDS011;5042;42.626;23.382;2023-07-16T06:23:27;3.50;;;3.20;;
10005;SDS011;5042;42.626;23.382;2023-07-16T06:25:54;4.90;;;3.95;;
10005;SDS011;5042;42.626;23.382;2023-07-16T06:28:21;4.30;;;3.67;;
10005;SDS011;5042;42.626;23.382;2023-07-16T06:30:48;3.60;;;3.30;;
10005;SDS011;5042;42.626;23.382;2023-07-16T06:33:17;3.60;;;3.40;;
10005;SDS011;5042;42.626;23.382;2023-07-16T06:35:45;4.03;;;3.58;;
10005;SDS011;5042;42.626;23.382;2023-07-16T06:38:12;4.25;;;3.40;;
10005;SDS011;5042;42.626;23.382;2023-07-16T06:40:39;4.28;;;3.88;;
10005;SDS011;5042;42.626;23.382;2023-07-16T06:43:06;4.97;;;3.30;;
10005;SDS011;5042;42.626;23.382;2023-07-16T06:45:33;3.78;;;3.47;;
10005;SDS011;5042;42.626;23.382;2023-07-16T06:47:59;3.75;;;3.42;;
10005;SDS011;5042;42.626;23.382;2023-07-16T06:50:26;3.78;;;3.38;;
10005;SDS011;5042;42.626;23.382;2023-07-16T06:52:54;3.90;;;3.60;;
10005;SDS011;5042;42.626;23.382;2023-07-16T06:55:21;4.25;;;3.60;;
10005;SDS011;5042;42.626;23.382;2023-07-16T06:57:47;5.55;;;3.65;;
10005;SDS011;5042;42.626;23.382;2023-07-16T07:00:14;5.00;;;3.63;;
10005;SDS011;5042;42.626;23.382;2023-07-16T07:02:41;5.53;;;3.30;;
10005;SDS011;5042;42.626;23.382;2023-07-16T07:05:08;3.75;;;3.30;;
10005;SDS011;5042;42.626;23.382;2023-07-16T07:07:35;3.55;;;3.25;;
10005;SDS011;5042;42.626;23.382;2023-07-16T07:10:03;5.72;;;3.58;;
10005;SDS011;5042;42.626;23.382;2023-07-16T07:12:30;3.90;;;3.50;;
10005;SDS011;5042;42.626;23.382;2023-07-16T07:15:02;4.25;;;3.50;;
10005;SDS011;5042;42.626;23.382;2023-07-16T07:17:29;10.38;;;4.13;;
10005;SDS011;5042;42.626;23.382;2023-07-16T07:19:56;9.95;;;4.13;;
10005;SDS011;5042;42.626;23.382;2023-07-16T07:22:23;5.82;;;3.72;;
10005;SDS011;5042;42.626;23.382;2023-07-16T07:24:49;4.85;;;3.88;;
10005;SDS011;5042;42.626;23.382;2023-07-16T07:27:17;4.45;;;4.05;;
10005;SDS011;5042;42.626;23.382;2023-07-16T07:29:44;4.47;;;4.07;;
10005;SDS011;5042;42.626;23.382;2023-07-16T07:32:11;4.82;;;3.80;;
10005;SDS011;5042;42.626;23.382;2023-07-16T07:34:38;4.35;;;3.60;;
10005;SDS011;5042;42.626;23.382;2023-07-16T07:37:05;3.80;;;3.45;;
10005;SDS011;5042;42.626;23.382;2023-07-16T07:39:32;3.60;;;3.38;;
10005;SDS011;5042;42.626;23.382;2023-07-16T07:41:58;4.57;;;3.75;;
10005;SDS011;5042;42.626;23.382;2023-07-16T07:44:26;3.95;;;3.63;;
10005;SDS011;5042;42.626;23.382;2023-07-16T07:46:53;4.03;;;3.72;;
10005;SDS011;5042;42.626;23.382;2023-07-16T07:49:20;4.35;;;3.58;;
10005;SDS011;5042;42.626;23.382;2023-07-16T07:51:46;3.67;;;3.38;;
10005;SDS011;5042;42.626;23.382;2023-07-16T07:54:14;3.47;;;3.17;;
10005;SDS011;5042;42.626;23.382;2023-07-16T07:56:41;4.18;;;3.78;;
10005;SDS011;5042;42.626;23.382;2023-07-16T07:59:07;5.30;;;4.03;;
10005;SDS011;5042;42.626;23.382;2023-07-16T08:01:35;3.60;;;3.30;;
10005;SDS011;5042;42.626;23.382;2023-07-16T08:04:02;4.35;;;3.63;;
10005;SDS011;5042;42.626;23.382;2023-07-16T08:06:29;4.05;;;3.70;;
10005;SDS011;5042;42.626;23.382;2023-07-16T08:08:55;3.65;;;3.35;;
10005;SDS011;5042;42.626;23.382;2023-07-16T08:11:22;4.07;;;3.67;;
10005;SDS011;5042;42.626;23.382;2023-07-16T08:13:49;4.45;;;4.05;;
10005;SDS011;5042;42.626;23.382;2023-07-16T08:16:16;3.97;;;3.22;;
10005;SDS011;5042;42.626;23.382;2023-07-16T08:18:44;4.18;;;3.83;;
10005;SDS011;5042;42.626;23.382;2023-07-16T08:21:10;4.38;;;3.97;;
10005;SDS011;5042;42.626;23.382;2023-07-16T08:23:44;4.32;;;3.92;;
10005;SDS011;5042;42.626;23.382;2023-07-16T08:26:11;4.38;;;3.85;;
10005;SDS011;5042;42.626;23.382;2023-07-16T08:28:38;4.32;;;3.92;;
10005;SDS011;5042;42.626;23.382;2023-07-16T08:31:05;4.43;;;4.03;;
10005;SDS011;5042;42.626;23.382;2023-07-16T08:33:32;6.70;;;4.53;;
10005;SDS011;5042;42.626;23.382;2023-07-16T08:36:00;4.63;;;4.20;;
10005;SDS011;5042;42.626;23.382;2023-07-16T08:38:26;5.57;;;4.40;;
10005;SDS011;5042;42.626;23.382;2023-07-16T08:40:53;4.53;;;4.13;;
10005;SDS011;5042;42.626;23.382;2023-07-16T08:43:20;7.60;;;4.68;;
10005;SDS011;5042;42.626;23.382;2023-07-16T08:45:46;6.03;;;4.57;;
10005;SDS011;5042;42.626;23.382;2023-07-16T08:48:15;6.50;;;4.75;;
10005;SDS011;5042;42.626;23.382;2023-07-16T08:50:42;5.22;;;4.60;;
10005;SDS011;5042;42.626;23.382;2023-07-16T08:53:15;4.50;;;4.10;;
10005;SDS011;5042;42.626;23.382;2023-07-16T08:55:43;4.75;;;4.25;;
10005;SDS011;5042;42.626;23.382;2023-07-16T08:58:11;5.18;;;4.68;;
10005;SDS011;5042;42.626;23.382;2023-07-16T09:00:40;6.13;;;5.05;;
10005;SDS011;5042;42.626;23.382;2023-07-16T09:03:07;7.15;;;4.88;;
10005;SDS011;5042;42.626;23.382;2023-07-16T09:05:34;5.53;;;4.18;;
10005;SDS011;5042;42.626;23.382;2023-07-16T09:08:02;4.95;;;4.50;;
10005;SDS011;5042;42.626;23.382;2023-07-16T09:10:30;5.18;;;4.68;;
10005;SDS011;5042;42.626;23.382;2023-07-16T09:12:57;6.18;;;4.13;;
10005;SDS011;5042;42.626;23.382;2023-07-16T09:15:25;4.35;;;4.05;;
10005;SDS011;5042;42.626;23.382;2023-07-16T09:17:54;6.07;;;4.90;;
10005;SDS011;5042;42.626;23.382;2023-07-16T09:20:21;4.72;;;4.32;;
10005;SDS011;5042;42.626;23.382;2023-07-16T09:22:49;5.03;;;4.63;;
10005;SDS011;5042;42.626;23.382;2023-07-16T09:25:16;5.38;;;4.80;;
10005;SDS011;5042;42.626;23.382;2023-07-16T09:27:47;7.35;;;6.05;;
10005;SDS011;5042;42.626;23.382;2023-07-16T09:30:14;5.13;;;4.72;;
10005;SDS011;5042;42.626;23.382;2023-07-16T09:32:42;5.53;;;4.93;;
10005;SDS011;5042;42.626;23.382;2023-07-16T09:35:09;4.45;;;4.05;;
10005;SDS011;5042;42.626;23.382;2023-07-16T09:37:36;5.20;;;4.78;;
10005;SDS011;5042;42.626;23.382;2023-07-16T09:40:04;4.78;;;4.38;;
10005;SDS011;5042;42.626;23.382;2023-07-16T09:42:35;5.07;;;4.57;;
10005;SDS011;5042;42.626;23.382;2023-07-16T09:45:06;5.13;;;4.30;;
10005;SDS011;5042;42.626;23.382;2023-07-16T09:47:34;4.85;;;4.40;;
10005;SDS011;5042;42.626;23.382;2023-07-16T09:50:01;4.68;;;4.28;;
10005;SDS011;5042;42.626;23.382;2023-07-16T09:52:29;5.30;;;4.68;;
10005;SDS011;5042;42.626;23.382;2023-07-16T09:54:57;5.35;;;4.85;;
10005;SDS011;5042;42.626;23.382;2023-07-16T09:57:28;5.53;;;4.85;;
10005;SDS011;5042;42.626;23.382;2023-07-16T09:59:58;5.88;;;4.95;;
10005;SDS011;5042;42.626;23.382;2023-07-16T10:02:32;5.30;;;4.80;;
10005;SDS011;5042;42.626;23.382;2023-07-16T10:05:00;7.72;;;5.50;;
10005;SDS011;5042;42.626;23.382;2023-07-16T10:07:37;5.60;;;5.00;;
10005;SDS011;5042;42.626;23.382;2023-07-16T10:10:07;5.93;;;5.32;;
10005;SDS011;5042;42.626;23.382;2023-07-16T10:12:34;7.13;;;5.00;;
10005;SDS011;5042;42.626;23.382;2023-07-16T10:15:02;5.97;;;5.38;;
10005;SDS011;5042;42.626;23.382;2023-07-16T10:17:31;5.88;;;5.05;;
10005;SDS011;5042;42.626;23.382;2023-07-16T10:19:59;5.32;;;4.82;;
10005;SDS011;5042;42.626;23.382;2023-07-16T10:22:32;6.03;;;5.47;;
10005;SDS011;5042;42.626;23.382;2023-07-16T10:25:04;5.53;;;5.03;;
10005;SDS011;5042;42.626;23.382;2023-07-16T10:27:34;5.93;;;5.40;;
10005;SDS011;5042;42.626;23.382;2023-07-16T10:30:01;6.15;;;5.65;;
10005;SDS011;5042;42.626;23.382;2023-07-16T10:32:31;6.95;;;5.63;;
10005;SDS011;5042;42.626;23.382;2023-07-16T10:34:58;5.90;;;5.30;;
10005;SDS011;5042;42.626;23.382;2023-07-16T10:37:25;7.95;;;5.40;;
10005;SDS011;5042;42.626;23.382;2023-07-16T10:39:53;5.55;;;5.05;;
10005;SDS011;5042;42.626;23.382;2023-07-16T10:42:22;7.60;;;5.40;;
10005;SDS011;5042;42.626;23.382;2023-07-16T10:44:50;7.07;;;5.10;;
10005;SDS011;5042;42.626;23.382;2023-07-16T10:47:18;6.82;;;5.63;;
10005;SDS011;5042;42.626;23.382;2023-07-16T10:49:48;6.53;;;5.97;;
10005;SDS011;5042;42.626;23.382;2023-07-16T10:52:17;6.95;;;5.22;;
10005;SDS011;5042;42.626;23.382;2023-07-16T10:54:44;6.43;;;5.82;;
10005;SDS011;5042;42.626;23.382;2023-07-16T10:57:11;6.15;;;5.55;;
10005;SDS011;5042;42.626;23.382;2023-07-16T10:59:38;6.20;;;5.60;;
10005;SDS011;5042;42.626;23.382;2023-07-16T11:02:08;9.70;;;5.97;;
10005;SDS011;5042;42.626;23.382;2023-07-16T11:04:37;7.65;;;5.93;;
10005;SDS011;5042;42.626;23.382;2023-07-16T11:07:06;7.32;;;5.82;;
10005;SDS011;5042;42.626;23.382;2023-07-16T11:09:34;6.95;;;6.25;;
10005;SDS011;5042;42.626;23.382;2023-07-16T11:12:07;6.05;;;5.55;;
10005;SDS011;5042;42.626;23.382;2023-07-16T11:14:34;7.18;;;6.35;;
10005;SDS011;5042;42.626;23.382;2023-07-16T11:17:04;6.57;;;5.95;;
10005;SDS011;5042;42.626;23.382;2023-07-16T11:19:33;6.15;;;5.55;;
10005;SDS011;5042;42.626;23.382;2023-07-16T11:22:00;7.45;;;5.68;;
10005;SDS011;5042;42.626;23.382;2023-07-16T11:24:31;6.20;;;5.60;;
10005;SDS011;5042;42.626;23.382;2023-07-16T11:27:03;7.18;;;5.28;;
10005;SDS011;5042;42.626;23.382;2023-07-16T11:29:33;6.50;;;5.90;;
10005;SDS011;5042;42.626;23.382;2023-07-16T11:32:01;8.15;;;5.60;;
10005;SDS011;5042;42.626;23.382;2023-07-16T11:34:28;9.68;;;6.10;;
10005;SDS011;5042;42.626;23.382;2023-07-16T11:36:54;6.60;;;5.85;;
10005;SDS011;5042;42.626;23.382;2023-07-16T11:39:21;6.40;;;5.80;;
10005;SDS011;5042;42.626;23.382;2023-07-16T11:41:56;6.18;;;5.57;;
10005;SDS011;5042;42.626;23.382;2023-07-16T11:44:22;7.25;;;5.65;;
10005;SDS011;5042;42.626;23.382;2023-07-16T11:46:49;6.50;;;5.90;;
10005;SDS011;5042;42.626;23.382;2023-07-16T11:49:16;7.28;;;5.38;;
10005;SDS011;5042;42.626;23.382;2023-07-16T11:51:43;6.10;;;5.50;;
10005;SDS011;5042;42.626;23.382;2023-07-16T11:54:09;8.10;;;6.07;;
10005;SDS011;5042;42.626;23.382;2023-07-16T11:56:36;7.00;;;5.88;;
10005;SDS011;5042;42.626;23.382;2023-07-16T11:59:04;6.47;;;5.88;;
10005;SDS011;5042;42.626;23.382;2023-07-16T12:01:31;8.90;;;5.88;;
10005;SDS011;5042;42.626;23.382;2023-07-16T12:03:58;6.78;;;6.07;;
10005;SDS011;5042;42.626;23.382;2023-07-16T12:06:24;7.53;;;5.90;;
10005;SDS011;5042;42.626;23.382;2023-07-16T12:08:51;6.82;;;5.93;;
10005;SDS011;5042;42.626;23.382;2023-07-16T12:11:20;7.32;;;6.15;;
10005;SDS011;5042;42.626;23.382;2023-07-16T12:13:46;6.20;;;5.60;;
10005;SDS011;5042;42.626;23.382;2023-07-16T12:16:15;6.97;;;5.88;;
10005;SDS011;5042;42.626;23.382;2023-07-16T12:18:41;6.22;;;5.45;;
10005;SDS011;5042;42.626;23.382;2023-07-16T12:21:08;6.53;;;5.80;;
10005;SDS011;5042;42.626;23.382;2023-07-16T12:23:35;6.65;;;5.97;;
10005;SDS011;5042;42.626;23.382;2023-07-16T12:26:01;6.47;;;5.88;;
10005;SDS011;5042;42.626;23.382;2023-07-16T12:28:28;7.65;;;5.80;;
10005;SDS011;5042;42.626;23.382;2023-07-16T12:30:55;9.90;;;6.03;;
10005;SDS011;5042;42.626;23.382;2023-07-16T12:33:23;7.22;;;6.20;;
10005;SDS011;5042;42.626;23.382;2023-07-16T12:35:49;5.95;;;5.35;;
10005;SDS011;5042;42.626;23.382;2023-07-16T12:38:16;9.20;;;6.10;;
10005;SDS011;5042;42.626;23.382;2023-07-16T12:40:43;6.78;;;6.10;;
10005;SDS011;5042;42.626;23.382;2023-07-16T12:43:09;9.55;;;6.15;;
10005;SDS011;5042;42.626;23.382;2023-07-16T12:45:36;7.70;;;6.20;;
10005;SDS011;5042;42.626;23.382;2023-07-16T12:48:03;5.97;;;5.47;;
10005;SDS011;5042;42.626;23.382;2023-07-16T12:50:31;10.60;;;6.22;;
10005;SDS011;5042;42.626;23.382;2023-07-16T12:52:58;7.50;;;5.63;;
10005;SDS011;5042;42.626;23.382;2023-07-16T12:55:25;8.38;;;6.00;;
10005;SDS011;5042;42.626;23.382;2023-07-16T12:57:51;7.38;;;5.93;;
10005;SDS011;5042;42.626;23.382;2023-07-16T13:00:18;6.10;;;5.40;;
10005;SDS011;5042;42.626;23.382;2023-07-16T13:02:45;6.43;;;5.80;;
10005;SDS011;5042;42.626;23.382;2023-07-16T13:05:11;6.18;;;5.63;;
10005;SDS011;5042;42.626;23.382;2023-07-16T13:07:39;5.97;;;5.38;;
10005;SDS011;5042;42.626;23.382;2023-07-16T13:10:07;7.88;;;7.05;;
10005;SDS011;5042;42.626;23.382;2023-07-16T13:12:35;7.38;;;6.60;;
10005;SDS011;5042;42.626;23.382;2023-07-16T13:15:01;6.35;;;5.75;;
10005;SDS011;5042;42.626;23.382;2023-07-16T13:17:28;8.20;;;6.10;;
10005;SDS011;5042;42.626;23.382;2023-07-16T13:19:55;7.38;;;6.32;;
10005;SDS011;5042;42.626;23.382;2023-07-16T13:22:22;6.00;;;5.50;;
10005;SDS011;5042;42.626;23.382;2023-07-16T13:24:50;6.57;;;5.70;;
10005;SDS011;5042;42.626;23.382;2023-07-16T13:27:19;6.40;;;5.80;;
10005;SDS011;5042;42.626;23.382;2023-07-16T13:29:47;6.55;;;5.57;;
10005;SDS011;5042;42.626;23.382;2023-07-16T13:32:14;6.57;;;5.95;;
10005;SDS011;5042;42.626;23.382;2023-07-16T13:34:41;6.35;;;5.80;;
10005;SDS011;5042;42.626;23.382;2023-07-16T13:37:07;7.18;;;6.47;;
10005;SDS011;5042;42.626;23.382;2023-07-16T13:39:36;8.73;;;6.03;;
10005;SDS011;5042;42.626;23.382;2023-07-16T13:42:04;9.05;;;6.55;;
10005;SDS011;5042;42.626;23.382;2023-07-16T13:44:32;6.43;;;5.82;;
10005;SDS011;5042;42.626;23.382;2023-07-16T13:46:58;6.18;;;5.57;;
10005;SDS011;5042;42.626;23.382;2023-07-16T13:49:25;6.72;;;5.93;;
10005;SDS011;5042;42.626;23.382;2023-07-16T13:51:52;8.05;;;5.72;;
10005;SDS011;5042;42.626;23.382;2023-07-16T13:54:18;7.07;;;6.38;;
10005;SDS011;5042;42.626;23.382;2023-07-16T13:56:45;6.97;;;6.20;;
10005;SDS011;5042;42.626;23.382;2023-07-16T13:59:13;7.80;;;6.22;;
10005;SDS011;5042;42.626;23.382;2023-07-16T14:01:40;8.00;;;7.18;;
10005;SDS011;5042;42.626;23.382;2023-07-16T14:04:07;7.22;;;6.50;;
10005;SDS011;5042;42.626;23.382;2023-07-16T14:06:34;8.30;;;6.25;;
10005;SDS011;5042;42.626;23.382;2023-07-16T14:09:01;7.63;;;6.15;;
10005;SDS011;5042;42.626;23.382;2023-07-16T14:11:30;8.38;;;7.03;;
10005;SDS011;5042;42.626;23.382;2023-07-16T14:13:56;6.70;;;5.88;;
10005;SDS011;5042;42.626;23.382;2023-07-16T14:16:24;8.13;;;5.95;;
10005;SDS011;5042;42.626;23.382;2023-07-16T14:18:52;8.40;;;6.40;;
10005;SDS011;5042;42.626;23.382;2023-07-16T14:21:20;6.18;;;5.57;;
10005;SDS011;5042;42.626;23.382;2023-07-16T14:23:46;7.13;;;5.78;;
10005;SDS011;5042;42.626;23.382;2023-07-16T14:26:13;6.10;;;5.35;;
10005;SDS011;5042;42.626;23.382;2023-07-16T14:28:40;6.55;;;5.95;;
10005;SDS011;5042;42.626;23.382;2023-07-16T14:31:06;5.78;;;5.28;;
10005;SDS011;5042;42.626;23.382;2023-07-16T14:33:34;6.70;;;6.10;;
10005;SDS011;5042;42.626;23.382;2023-07-16T14:36:01;8.88;;;5.85;;
10005;SDS011;5042;42.626;23.382;2023-07-16T14:38:28;6.43;;;5.13;;
10005;SDS011;5042;42.626;23.382;2023-07-16T14:40:54;7.38;;;5.45;;
10005;SDS011;5042;42.626;23.382;2023-07-16T14:43:21;9.90;;;6.07;;
10005;SDS011;5042;42.626;23.382;2023-07-16T14:45:48;7.88;;;6.10;;
10005;SDS011;5042;42.626;23.382;2023-07-16T14:48:14;7.90;;;6.78;;
10005;SDS011;5042;42.626;23.382;2023-07-16T14:50:42;6.47;;;5.85;;
10005;SDS011;5042;42.626;23.382;2023-07-16T14:53:09;7.93;;;6.38;;